»·PEaware :: SWA5364 KPHX-KLAX

SWA5364 :: KPHX-KLAX

FLIGHT INFORMATION

Flight Status: Arrived
Operator:
Southwest Airlines
More flights by this operator :: More flights under this callsign
Pilot: Zach J. (11240)
Aircraft: BOEING 737-700
(B737)
More flights by this aircraft type
Origin: KPHX Phoenix Sky Harbor Intl
United States
Destination: KLAX Los Angeles Intl
United States
More flights between these airports :: More routes between these airports
Route: +IZZZO6 MESSI ESTWD HLYWD1
File this flight plan on PilotEdge
Remarks: SEL / KSEJ
Altitude:
(Current/Filed)
32,000ft
Speed:
(Current/Filed)
462kts
Departed: 27-Sep-17 04:28 PM
Arrived: 27-Sep-17 05:26 PM
Distance/Time
Traveled:
321nm/0:58
Distance/Time
To Go:
Arrived

Flight Plot

Page will automatically refresh every two minutes.

Flight plan parsing failed; only flown route is shown


Map Options




Map Legend


Flown Route
Filed Route
Departure Airport
Arrival Airport
Navaid (VOR, NDB)
Fix

Horizontal Profiles

Position Reports

Time Latitude Longitude Heading Altitude Ground
Speed
27-Sep-17 15:44 33.434054 -111.998605 298 1143ft 0kts
27-Sep-17 15:45 33.434054 -111.998605 298 1143ft 0kts
27-Sep-17 15:46 33.434054 -111.998605 298 1143ft 0kts
27-Sep-17 15:47 33.434054 -111.998605 298 1143ft 0kts
27-Sep-17 15:48 33.434054 -111.998605 298 1143ft 0kts
27-Sep-17 15:49 33.434054 -111.998605 298 1143ft 0kts
27-Sep-17 15:50 33.434054 -111.998605 298 1143ft 0kts
27-Sep-17 15:51 33.434054 -111.998605 298 1143ft 0kts
27-Sep-17 15:52 33.434054 -111.998605 298 1143ft 0kts
27-Sep-17 15:53 33.434054 -111.998605 298 1143ft 0kts
27-Sep-17 15:54 33.434054 -111.998605 298 1143ft 0kts
27-Sep-17 15:55 33.434054 -111.998605 298 1143ft 0kts
27-Sep-17 15:56 33.434054 -111.998605 298 1143ft 0kts
27-Sep-17 15:57 33.434054 -111.998605 298 1143ft 0kts
27-Sep-17 15:58 33.434054 -111.998605 298 1143ft 0kts
27-Sep-17 15:59 33.434054 -111.998605 298 1143ft 0kts
27-Sep-17 16:00 33.434054 -111.998605 298 1143ft 0kts
27-Sep-17 16:01 33.434054 -111.998605 298 1143ft 0kts
27-Sep-17 16:02 33.434054 -111.998605 298 1143ft 0kts
27-Sep-17 16:03 33.434054 -111.998605 298 1143ft 0kts
27-Sep-17 16:04 33.434054 -111.998605 298 1143ft 0kts
27-Sep-17 16:05 33.434054 -111.998605 298 1143ft 0kts
27-Sep-17 16:06 33.434054 -111.998605 298 1143ft 0kts
27-Sep-17 16:07 33.434054 -111.998605 298 1143ft 0kts
27-Sep-17 16:08 33.434054 -111.998605 298 1143ft 0kts
27-Sep-17 16:09 33.434054 -111.998605 298 1143ft 0kts
27-Sep-17 16:10 33.434054 -111.998605 298 1143ft 0kts
27-Sep-17 16:11 33.434054 -111.998605 298 1143ft 0kts
27-Sep-17 16:12 33.434054 -111.998605 298 1143ft 0kts
27-Sep-17 16:13 33.434054 -111.998605 298 1143ft 0kts
27-Sep-17 16:14 33.434054 -111.998605 298 1143ft 0kts
27-Sep-17 16:15 33.434054 -111.998605 298 1143ft 0kts
27-Sep-17 16:16 33.434054 -111.998605 298 1143ft 0kts
27-Sep-17 16:17 33.434054 -111.998605 298 1143ft 0kts
27-Sep-17 16:18 33.434054 -111.998605 298 1143ft 0kts
27-Sep-17 16:19 33.433566 -111.998138 0 1143ft 2kts
27-Sep-17 16:20 33.433501 -111.998138 0 1143ft 0kts
27-Sep-17 16:21 33.433501 -111.998138 359 1143ft 0kts
27-Sep-17 16:22 33.433501 -111.998138 359 1143ft 0kts
27-Sep-17 16:23 33.433202 -111.998094 194 1143ft 0kts
27-Sep-17 16:24 33.433200 -111.998094 194 1143ft 0kts
27-Sep-17 16:25 33.433199 -111.998095 194 1143ft 0kts
27-Sep-17 16:26 33.433198 -111.998095 194 1143ft 0kts
27-Sep-17 16:27 33.433196 -111.998096 194 1143ft 0kts
27-Sep-17 16:28 33.432883 -111.995878 89 1143ft 19kts
27-Sep-17 16:29 33.431946 -111.993525 194 1143ft 0kts
27-Sep-17 16:30 33.431944 -111.993526 194 1143ft 0kts
27-Sep-17 16:31 33.431891 -111.993543 194 1143ft 4kts
27-Sep-17 16:32 33.431031 -112.009514 270 1145ft 148kts
27-Sep-17 16:33 33.430425 -112.067420 271 3650ft 192kts
27-Sep-17 16:34 33.432984 -112.145318 273 5862ft 266kts
27-Sep-17 16:35 33.436686 -112.237823 272 9525ft 289kts
27-Sep-17 16:36 33.440804 -112.342191 271 12150ft 345kts
27-Sep-17 16:37 33.445122 -112.460226 271 15742ft 363kts
27-Sep-17 16:38 33.449443 -112.581405 271 19777ft 365kts
27-Sep-17 16:39 33.451621 -112.704434 269 23023ft 374kts
27-Sep-17 16:40 33.464525 -112.828691 286 25651ft 391kts
27-Sep-17 16:41 33.506355 -112.952223 289 28033ft 399kts
27-Sep-17 16:42 33.548248 -113.073373 288 30830ft 389kts
27-Sep-17 16:43 33.589875 -113.193512 289 31902ft 391kts
27-Sep-17 16:44 33.631618 -113.313259 289 31906ft 387kts
27-Sep-17 16:45 33.672898 -113.432647 290 31906ft 388kts
27-Sep-17 16:46 33.714211 -113.552049 290 31924ft 387kts
27-Sep-17 16:47 33.755237 -113.672105 290 31928ft 388kts
27-Sep-17 16:48 33.795987 -113.791815 290 31922ft 387kts
27-Sep-17 16:49 33.837070 -113.912078 291 31915ft 388kts
27-Sep-17 16:50 33.877641 -114.032120 291 31906ft 387kts
27-Sep-17 16:51 33.912206 -114.154486 281 31904ft 387kts
27-Sep-17 16:52 33.933652 -114.281774 281 31900ft 387kts
27-Sep-17 16:53 33.954863 -114.408582 281 31893ft 386kts
27-Sep-17 16:54 33.976028 -114.535131 281 31890ft 386kts
27-Sep-17 16:55 33.997568 -114.662142 281 31894ft 385kts
27-Sep-17 16:56 34.018813 -114.789566 282 31895ft 390kts
27-Sep-17 16:57 34.039765 -114.917744 283 31895ft 390kts
27-Sep-17 16:58 34.060688 -115.046261 283 31901ft 389kts
27-Sep-17 16:59 34.081404 -115.174320 283 31908ft 389kts
27-Sep-17 17:00 34.102010 -115.302685 284 31915ft 388kts
27-Sep-17 17:01 34.122879 -115.430192 284 31926ft 387kts
27-Sep-17 17:02 34.143089 -115.557578 284 31939ft 386kts
27-Sep-17 17:03 34.160371 -115.685788 276 31955ft 389kts
27-Sep-17 17:04 34.151687 -115.817012 268 31973ft 394kts
27-Sep-17 17:05 34.138852 -115.948098 268 31992ft 393kts
27-Sep-17 17:06 34.126118 -116.079442 268 32010ft 393kts
27-Sep-17 17:07 34.113102 -116.210322 268 32014ft 394kts
27-Sep-17 17:08 34.100001 -116.339464 268 31999ft 369kts
27-Sep-17 17:09 34.087775 -116.453766 268 31959ft 319kts
27-Sep-17 17:10 34.075763 -116.564378 268 28335ft 365kts
27-Sep-17 17:11 34.063844 -116.689977 268 25062ft 373kts
27-Sep-17 17:12 34.052560 -116.810202 268 23688ft 348kts
27-Sep-17 17:13 34.040126 -116.929679 265 21076ft 359kts
27-Sep-17 17:14 34.024697 -117.047274 266 18369ft 348kts
27-Sep-17 17:15 34.011311 -117.160784 265 17066ft 341kts
27-Sep-17 17:16 33.997769 -117.273968 265 15708ft 334kts
27-Sep-17 17:17 33.984749 -117.383851 264 13332ft 328kts
27-Sep-17 17:18 33.972283 -117.491488 266 11992ft 319kts
27-Sep-17 17:19 33.970111 -117.598874 270 11487ft 316kts
27-Sep-17 17:20 33.968448 -117.704281 270 9504ft 312kts
27-Sep-17 17:21 33.966829 -117.806786 270 7676ft 300kts
27-Sep-17 17:22 33.965168 -117.905709 269 5878ft 289kts
27-Sep-17 17:23 33.963274 -118.000162 267 4165ft 276kts
27-Sep-17 17:24 33.961365 -118.087382 267 3580ft 245kts
27-Sep-17 17:25 33.959631 -118.166806 264 3572ft 225kts
27-Sep-17 17:26 33.951973 -118.240549 261 2482ft 210kts
27-Sep-17 17:27 33.945596 -118.302502 262 1504ft 160kts
27-Sep-17 17:28 33.940412 -118.353101 263 702ft 149kts
27-Sep-17 17:29 33.935574 -118.399587 262 135ft 110kts
27-Sep-17 17:30 33.935152 -118.411220 291 134ft 0kts
27-Sep-17 17:31 33.935156 -118.411232 291 134ft 0kts
27-Sep-17 17:32 33.935924 -118.412651 345 134ft 13kts
27-Sep-17 17:33 33.937203 -118.412893 354 134ft 0kts
27-Sep-17 17:34 33.937205 -118.412893 354 134ft 0kts
27-Sep-17 17:35 33.941225 -118.412194 351 134ft 18kts
27-Sep-17 17:36 33.946534 -118.412966 8 134ft 18kts
27-Sep-17 17:37 33.947440 -118.409732 78 134ft 17kts
27-Sep-17 17:38 33.948080 -118.403371 82 134ft 15kts
27-Sep-17 17:39 33.947356 -118.402050 102 134ft 0kts
27-Sep-17 17:40 33.947352 -118.402030 102 134ft 0kts
27-Sep-17 17:41 33.947352 -118.402030 102 134ft 0kts
27-Sep-17 17:42 33.947352 -118.402030 102 134ft 0kts
27-Sep-17 17:43 33.947352 -118.402030 102 134ft 0kts
27-Sep-17 17:44 33.947352 -118.402030 102 134ft 0kts

Navigation Log

Ident Type
Flight plan parsing failed, navigation log unavailable